sensor_id;sensor_type;location;lat;lon;timestamp;pressure;altitude;pressure_sealevel;temperature;humidity
72896;BME280;61036;53.224;6.554;2022-10-13T00:02:12;101903.13;;;9.87;100.00
72896;BME280;61036;53.224;6.554;2022-10-13T00:04:37;101912.78;;;9.91;100.00
72896;BME280;61036;53.224;6.554;2022-10-13T00:07:03;101904.00;;;9.88;100.00
72896;BME280;61036;53.224;6.554;2022-10-13T00:09:28;101907.47;;;9.90;100.00
72896;BME280;61036;53.224;6.554;2022-10-13T00:11:58;101914.78;;;9.88;100.00
72896;BME280;61036;53.224;6.554;2022-10-13T00:14:23;101917.31;;;9.91;100.00
72896;BME280;61036;53.224;6.554;2022-10-13T00:16:50;101905.09;;;9.83;100.00
72896;BME280;61036;53.224;6.554;2022-10-13T00:19:16;101906.06;;;9.82;100.00
72896;BME280;61036;53.224;6.554;2022-10-13T00:21:42;101900.16;;;9.76;100.00
72896;BME280;61036;53.224;6.554;2022-10-13T00:24:10;101894.84;;;9.74;100.00
72896;BME280;61036;53.224;6.554;2022-10-13T00:26:36;101898.16;;;9.79;100.00
72896;BME280;61036;53.224;6.554;2022-10-13T00:29:06;101900.59;;;9.84;100.00
72896;BME280;61036;53.224;6.554;2022-10-13T00:31:32;101893.56;;;9.81;100.00
72896;BME280;61036;53.224;6.554;2022-10-13T00:33:59;101897.97;;;9.82;100.00
72896;BME280;61036;53.224;6.554;2022-10-13T00:36:25;101893.63;;;9.80;100.00
72896;BME280;61036;53.224;6.554;2022-10-13T00:38:52;101889.03;;;9.82;100.00
72896;BME280;61036;53.224;6.554;2022-10-13T00:41:18;101886.16;;;9.69;100.00
72896;BME280;61036;53.224;6.554;2022-10-13T00:43:48;101889.53;;;9.73;100.00
72896;BME280;61036;53.224;6.554;2022-10-13T00:46:15;101886.34;;;9.82;100.00
72896;BME280;61036;53.224;6.554;2022-10-13T00:48:43;101885.66;;;9.78;100.00
72896;BME280;61036;53.224;6.554;2022-10-13T00:51:10;101885.38;;;9.83;100.00
72896;BME280;61036;53.224;6.554;2022-10-13T00:53:37;101878.09;;;9.85;100.00
72896;BME280;61036;53.224;6.554;2022-10-13T00:56:08;101876.97;;;9.89;100.00
72896;BME280;61036;53.224;6.554;2022-10-13T00:58:38;101870.97;;;9.84;100.00
72896;BME280;61036;53.224;6.554;2022-10-13T01:01:05;101869.66;;;9.91;100.00
72896;BME280;61036;53.224;6.554;2022-10-13T01:03:31;101870.00;;;9.85;100.00
72896;BME280;61036;53.224;6.554;2022-10-13T01:05:59;101864.84;;;9.80;100.00
72896;BME280;61036;53.224;6.554;2022-10-13T01:08:28;101873.75;;;9.82;100.00
72896;BME280;61036;53.224;6.554;2022-10-13T01:21:46;101854.09;;;9.80;100.00
72896;BME280;61036;53.224;6.554;2022-10-13T01:27:37;101850.19;;;9.86;100.00
72896;BME280;61036;53.224;6.554;2022-10-13T01:32:36;101847.41;;;9.88;100.00
72896;BME280;61036;53.224;6.554;2022-10-13T01:35:11;101836.72;;;9.86;100.00
72896;BME280;61036;53.224;6.554;2022-10-13T01:37:46;101833.84;;;9.89;100.00
72896;BME280;61036;53.224;6.554;2022-10-13T01:40:27;101832.75;;;9.93;100.00
72896;BME280;61036;53.224;6.554;2022-10-13T01:43:00;101822.22;;;9.89;100.00
72896;BME280;61036;53.224;6.554;2022-10-13T01:45:32;101820.31;;;9.91;100.00
72896;BME280;61036;53.224;6.554;2022-10-13T01:48:01;101818.06;;;9.99;100.00
72896;BME280;61036;53.224;6.554;2022-10-13T01:50:29;101811.09;;;9.95;100.00
72896;BME280;61036;53.224;6.554;2022-10-13T01:52:59;101807.34;;;9.97;100.00
72896;BME280;61036;53.224;6.554;2022-10-13T01:55:29;101803.63;;;10.00;100.00
72896;BME280;61036;53.224;6.554;2022-10-13T01:57:56;101798.91;;;10.03;100.00
72896;BME280;61036;53.224;6.554;2022-10-13T02:00:22;101798.72;;;10.06;100.00
72896;BME280;61036;53.224;6.554;2022-10-13T02:03:12;101790.81;;;10.03;100.00
72896;BME280;61036;53.224;6.554;2022-10-13T02:05:49;101788.25;;;10.02;100.00
72896;BME280;61036;53.224;6.554;2022-10-13T02:08:24;101793.81;;;9.99;100.00
72896;BME280;61036;53.224;6.554;2022-10-13T02:10:58;101801.44;;;10.06;100.00
72896;BME280;61036;53.224;6.554;2022-10-13T02:13:27;101807.84;;;10.04;100.00
72896;BME280;61036;53.224;6.554;2022-10-13T02:15:58;101797.38;;;9.99;100.00
72896;BME280;61036;53.224;6.554;2022-10-13T02:18:30;101799.94;;;10.01;100.00
72896;BME280;61036;53.224;6.554;2022-10-13T02:20:57;101788.41;;;9.99;100.00
72896;BME280;61036;53.224;6.554;2022-10-13T02:23:26;101790.38;;;9.95;100.00
72896;BME280;61036;53.224;6.554;2022-10-13T02:25:52;101789.34;;;9.98;100.00
72896;BME280;61036;53.224;6.554;2022-10-13T02:28:20;101787.28;;;10.03;100.00
72896;BME280;61036;53.224;6.554;2022-10-13T02:30:46;101802.81;;;9.98;100.00
72896;BME280;61036;53.224;6.554;2022-10-13T02:33:12;101801.09;;;9.97;100.00
72896;BME280;61036;53.224;6.554;2022-10-13T02:35:39;101792.22;;;9.95;100.00
72896;BME280;61036;53.224;6.554;2022-10-13T02:38:05;101782.59;;;9.91;100.00
72896;BME280;61036;53.224;6.554;2022-10-13T02:40:32;101787.97;;;9.91;100.00
72896;BME280;61036;53.224;6.554;2022-10-13T02:42:58;101788.31;;;9.84;100.00
72896;BME280;61036;53.224;6.554;2022-10-13T02:45:24;101792.91;;;9.82;100.00
72896;BME280;61036;53.224;6.554;2022-10-13T02:47:53;101780.41;;;9.81;100.00
72896;BME280;61036;53.224;6.554;2022-10-13T02:50:19;101779.00;;;9.74;100.00
72896;BME280;61036;53.224;6.554;2022-10-13T02:52:44;101780.16;;;9.70;100.00
72896;BME280;61036;53.224;6.554;2022-10-13T02:55:10;101783.09;;;9.66;100.00
72896;BME280;61036;53.224;6.554;2022-10-13T02:57:36;101793.53;;;9.72;100.00
72896;BME280;61036;53.224;6.554;2022-10-13T03:00:04;101786.66;;;9.66;100.00
72896;BME280;61036;53.224;6.554;2022-10-13T03:02:30;101777.44;;;9.70;100.00
72896;BME280;61036;53.224;6.554;2022-10-13T03:04:56;101782.94;;;9.69;100.00
72896;BME280;61036;53.224;6.554;2022-10-13T03:07:22;101782.66;;;9.73;100.00
72896;BME280;61036;53.224;6.554;2022-10-13T03:09:48;101782.50;;;9.76;100.00
72896;BME280;61036;53.224;6.554;2022-10-13T03:12:14;101767.47;;;9.72;100.00
72896;BME280;61036;53.224;6.554;2022-10-13T03:14:40;101771.53;;;9.64;100.00
72896;BME280;61036;53.224;6.554;2022-10-13T03:17:06;101771.03;;;9.73;100.00
72896;BME280;61036;53.224;6.554;2022-10-13T03:19:32;101772.06;;;9.70;100.00
72896;BME280;61036;53.224;6.554;2022-10-13T03:21:58;101765.13;;;9.66;100.00
72896;BME280;61036;53.224;6.554;2022-10-13T03:24:27;101758.84;;;9.66;100.00
72896;BME280;61036;53.224;6.554;2022-10-13T03:26:53;101756.94;;;9.68;100.00
72896;BME280;61036;53.224;6.554;2022-10-13T03:29:19;101758.78;;;9.67;100.00
72896;BME280;61036;53.224;6.554;2022-10-13T03:31:46;101754.75;;;9.74;100.00
72896;BME280;61036;53.224;6.554;2022-10-13T03:34:15;101755.91;;;9.70;100.00
72896;BME280;61036;53.224;6.554;2022-10-13T03:36:41;101765.81;;;9.70;100.00
72896;BME280;61036;53.224;6.554;2022-10-13T03:39:06;101768.22;;;9.74;100.00
72896;BME280;61036;53.224;6.554;2022-10-13T03:41:32;101770.06;;;9.74;100.00
72896;BME280;61036;53.224;6.554;2022-10-13T03:43:58;101758.69;;;9.69;100.00
72896;BME280;61036;53.224;6.554;2022-10-13T03:46:28;101766.84;;;9.67;100.00
72896;BME280;61036;53.224;6.554;2022-10-13T03:48:55;101768.00;;;9.63;100.00
72896;BME280;61036;53.224;6.554;2022-10-13T03:51:22;101775.91;;;9.66;100.00
72896;BME280;61036;53.224;6.554;2022-10-13T03:53:50;101768.75;;;9.65;100.00
72896;BME280;61036;53.224;6.554;2022-10-13T03:56:25;101768.84;;;9.64;100.00
72896;BME280;61036;53.224;6.554;2022-10-13T03:58:52;101774.06;;;9.67;100.00
72896;BME280;61036;53.224;6.554;2022-10-13T04:01:25;101768.84;;;9.64;100.00
72896;BME280;61036;53.224;6.554;2022-10-13T04:03:52;101763.63;;;9.60;100.00
72896;BME280;61036;53.224;6.554;2022-10-13T04:06:19;101759.03;;;9.62;100.00
72896;BME280;61036;53.224;6.554;2022-10-13T04:08:45;101757.41;;;9.60;100.00
72896;BME280;61036;53.224;6.554;2022-10-13T04:11:12;101759.91;;;9.63;100.00
72896;BME280;61036;53.224;6.554;2022-10-13T04:13:41;101750.75;;;9.50;100.00
72896;BME280;61036;53.224;6.554;2022-10-13T04:16:18;101751.38;;;9.55;100.00
72896;BME280;61036;53.224;6.554;2022-10-13T04:18:48;101750.59;;;9.53;100.00
72896;BME280;61036;53.224;6.554;2022-10-13T04:21:15;101743.56;;;9.50;100.00
72896;BME280;61036;53.224;6.554;2022-10-13T04:23:41;101737.41;;;9.48;100.00
72896;BME280;61036;53.224;6.554;2022-10-13T04:26:20;101740.44;;;9.58;100.00
72896;BME280;61036;53.224;6.554;2022-10-13T04:28:50;101730.88;;;9.52;100.00
72896;BME280;61036;53.224;6.554;2022-10-13T04:31:17;101736.53;;;9.48;100.00
72896;BME280;61036;53.224;6.554;2022-10-13T04:33:43;101734.78;;;9.47;100.00
72896;BME280;61036;53.224;6.554;2022-10-13T04:36:12;101740.63;;;9.55;100.00
72896;BME280;61036;53.224;6.554;2022-10-13T04:38:41;101738.88;;;9.54;100.00
72896;BME280;61036;53.224;6.554;2022-10-13T04:41:07;101732.88;;;9.49;100.00
72896;BME280;61036;53.224;6.554;2022-10-13T04:43:34;101738.50;;;9.44;100.00
72896;BME280;61036;53.224;6.554;2022-10-13T04:46:09;101731.34;;;9.45;100.00
72896;BME280;61036;53.224;6.554;2022-10-13T04:48:36;101724.47;;;9.39;100.00
72896;BME280;61036;53.224;6.554;2022-10-13T04:51:05;101725.06;;;9.44;100.00
72896;BME280;61036;53.224;6.554;2022-10-13T04:53:32;101720.91;;;9.54;100.00
72896;BME280;61036;53.224;6.554;2022-10-13T04:56:09;101718.22;;;9.54;100.00
72896;BME280;61036;53.224;6.554;2022-10-13T04:58:36;101727.94;;;9.57;100.00
72896;BME280;61036;53.224;6.554;2022-10-13T05:01:06;101720.81;;;9.56;100.00
72896;BME280;61036;53.224;6.554;2022-10-13T05:03:32;101716.38;;;9.55;100.00
72896;BME280;61036;53.224;6.554;2022-10-13T05:05:59;101725.50;;;9.52;100.00
72896;BME280;61036;53.224;6.554;2022-10-13T05:08:25;101731.75;;;9.53;100.00
72896;BME280;61036;53.224;6.554;2022-10-13T05:11:09;101730.81;;;9.54;100.00
72896;BME280;61036;53.224;6.554;2022-10-13T05:13:35;101727.78;;;9.60;100.00
72896;BME280;61036;53.224;6.554;2022-10-13T05:16:12;101727.66;;;9.61;100.00
72896;BME280;61036;53.224;6.554;2022-10-13T05:18:39;101723.59;;;9.54;100.00
72896;BME280;61036;53.224;6.554;2022-10-13T05:21:06;101727.22;;;9.53;100.00
72896;BME280;61036;53.224;6.554;2022-10-13T05:23:37;101719.31;;;9.50;100.00
72896;BME280;61036;53.224;6.554;2022-10-13T05:26:15;101716.56;;;9.52;100.00
72896;BME280;61036;53.224;6.554;2022-10-13T05:28:41;101717.34;;;9.54;100.00
72896;BME280;61036;53.224;6.554;2022-10-13T05:31:13;101718.47;;;9.50;100.00
72896;BME280;61036;53.224;6.554;2022-10-13T05:33:39;101712.72;;;9.56;100.00
72896;BME280;61036;53.224;6.554;2022-10-13T05:36:14;101709.84;;;9.59;100.00
72896;BME280;61036;53.224;6.554;2022-10-13T05:38:41;101703.53;;;9.60;100.00
72896;BME280;61036;53.224;6.554;2022-10-13T05:41:09;101709.97;;;9.57;100.00
72896;BME280;61036;53.224;6.554;2022-10-13T05:43:36;101707.09;;;9.60;100.00
72896;BME280;61036;53.224;6.554;2022-10-13T05:46:03;101695.63;;;9.57;100.00
72896;BME280;61036;53.224;6.554;2022-10-13T05:48:30;101685.53;;;9.60;100.00
72896;BME280;61036;53.224;6.554;2022-10-13T05:50:59;101682.59;;;9.49;100.00
72896;BME280;61036;53.224;6.554;2022-10-13T05:53:28;101675.53;;;9.62;100.00
72896;BME280;61036;53.224;6.554;2022-10-13T05:55:59;101685.09;;;9.68;100.00
72896;BME280;61036;53.224;6.554;2022-10-13T05:58:36;101687.72;;;9.70;100.00
72896;BME280;61036;53.224;6.554;2022-10-13T06:01:10;101684.47;;;9.79;100.00
72896;BME280;61036;53.224;6.554;2022-10-13T06:03:37;101685.44;;;9.78;100.00
72896;BME280;61036;53.224;6.554;2022-10-13T06:06:07;101685.97;;;9.84;100.00
72896;BME280;61036;53.224;6.554;2022-10-13T06:08:34;101681.69;;;9.80;100.00
72896;BME280;61036;53.224;6.554;2022-10-13T06:11:00;101689.41;;;9.87;100.00
72896;BME280;61036;53.224;6.554;2022-10-13T06:13:26;101684.81;;;9.89;100.00
72896;BME280;61036;53.224;6.554;2022-10-13T06:15:53;101690.97;;;9.91;100.00
72896;BME280;61036;53.224;6.554;2022-10-13T06:18:19;101690.19;;;9.89;100.00
72896;BME280;61036;53.224;6.554;2022-10-13T06:20:45;101688.09;;;9.94;100.00
72896;BME280;61036;53.224;6.554;2022-10-13T06:23:13;101673.94;;;9.90;100.00
72896;BME280;61036;53.224;6.554;2022-10-13T06:25:50;101679.16;;;9.93;100.00
72896;BME280;61036;53.224;6.554;2022-10-13T06:28:16;101669.94;;;9.97;100.00
72896;BME280;61036;53.224;6.554;2022-10-13T06:30:46;101677.75;;;10.02;100.00
72896;BME280;61036;53.224;6.554;2022-10-13T06:33:19;101675.44;;;10.10;100.00
72896;BME280;61036;53.224;6.554;2022-10-13T06:35:46;101668.03;;;10.14;100.00
72896;BME280;61036;53.224;6.554;2022-10-13T06:38:13;101670.97;;;10.25;100.00
72896;BME280;61036;53.224;6.554;2022-10-13T06:40:43;101667.94;;;10.31;100.00
72896;BME280;61036;53.224;6.554;2022-10-13T06:43:09;101669.75;;;10.30;100.00
72896;BME280;61036;53.224;6.554;2022-10-13T06:45:39;101666.44;;;10.25;100.00
72896;BME280;61036;53.224;6.554;2022-10-13T06:48:08;101673.13;;;10.34;100.00
72896;BME280;61036;53.224;6.554;2022-10-13T06:50:34;101668.34;;;10.39;100.00
72896;BME280;61036;53.224;6.554;2022-10-13T06:53:08;101675.38;;;10.42;100.00
72896;BME280;61036;53.224;6.554;2022-10-13T06:55:34;101667.28;;;10.42;100.00
72896;BME280;61036;53.224;6.554;2022-10-13T06:57:59;101668.19;;;10.57;100.00
72896;BME280;61036;53.224;6.554;2022-10-13T07:00:25;101665.75;;;10.52;100.00
72896;BME280;61036;53.224;6.554;2022-10-13T07:02:50;101668.25;;;10.55;100.00
72896;BME280;61036;53.224;6.554;2022-10-13T07:05:17;101669.72;;;10.61;100.00
72896;BME280;61036;53.224;6.554;2022-10-13T07:07:42;101664.31;;;10.61;100.00
72896;BME280;61036;53.224;6.554;2022-10-13T07:10:08;101665.19;;;10.61;100.00
72896;BME280;61036;53.224;6.554;2022-10-13T07:12:35;101660.47;;;10.65;100.00
72896;BME280;61036;53.224;6.554;2022-10-13T07:15:01;101658.94;;;10.75;100.00
72896;BME280;61036;53.224;6.554;2022-10-13T07:17:27;101652.38;;;10.79;100.00
72896;BME280;61036;53.224;6.554;2022-10-13T07:19:52;101642.38;;;10.95;100.00
72896;BME280;61036;53.224;6.554;2022-10-13T07:22:18;101648.13;;;11.04;100.00
72896;BME280;61036;53.224;6.554;2022-10-13T07:24:44;101651.88;;;11.15;100.00
72896;BME280;61036;53.224;6.554;2022-10-13T07:27:10;101657.47;;;11.12;100.00
72896;BME280;61036;53.224;6.554;2022-10-13T07:29:36;101649.09;;;11.17;100.00
72896;BME280;61036;53.224;6.554;2022-10-13T07:32:03;101657.94;;;11.19;100.00
72896;BME280;61036;53.224;6.554;2022-10-13T07:34:29;101649.63;;;11.22;100.00
72896;BME280;61036;53.224;6.554;2022-10-13T07:36:55;101662.44;;;11.33;100.00
72896;BME280;61036;53.224;6.554;2022-10-13T07:39:24;101658.69;;;11.35;100.00
72896;BME280;61036;53.224;6.554;2022-10-13T07:41:50;101664.75;;;11.39;100.00
72896;BME280;61036;53.224;6.554;2022-10-13T07:44:16;101664.56;;;11.28;100.00
72896;BME280;61036;53.224;6.554;2022-10-13T07:46:43;101661.66;;;11.31;100.00
72896;BME280;61036;53.224;6.554;2022-10-13T07:49:09;101658.69;;;11.35;100.00
72896;BME280;61036;53.224;6.554;2022-10-13T07:51:35;101661.41;;;11.21;100.00
72896;BME280;61036;53.224;6.554;2022-10-13T07:54:04;101656.25;;;11.31;100.00
72896;BME280;61036;53.224;6.554;2022-10-13T07:56:32;101650.00;;;11.30;100.00
72896;BME280;61036;53.224;6.554;2022-10-13T07:58:57;101645.97;;;11.37;100.00
72896;BME280;61036;53.224;6.554;2022-10-13T08:01:23;101653.34;;;11.48;100.00
72896;BME280;61036;53.224;6.554;2022-10-13T08:03:54;101645.69;;;11.55;100.00
72896;BME280;61036;53.224;6.554;2022-10-13T08:06:20;101650.41;;;11.65;100.00
72896;BME280;61036;53.224;6.554;2022-10-13T08:08:48;101645.16;;;11.77;100.00
72896;BME280;61036;53.224;6.554;2022-10-13T08:11:16;101650.13;;;11.83;100.00
72896;BME280;61036;53.224;6.554;2022-10-13T08:13:45;101640.25;;;11.96;100.00
72896;BME280;61036;53.224;6.554;2022-10-13T08:16:15;101639.16;;;11.86;100.00
72896;BME280;61036;53.224;6.554;2022-10-13T08:18:40;101648.78;;;11.90;100.00
72896;BME280;61036;53.224;6.554;2022-10-13T08:21:12;101648.91;;;11.88;100.00
72896;BME280;61036;53.224;6.554;2022-10-13T08:23:37;101644.44;;;11.87;100.00
72896;BME280;61036;53.224;6.554;2022-10-13T08:26:04;101647.06;;;11.75;100.00
72896;BME280;61036;53.224;6.554;2022-10-13T08:28:33;101647.84;;;11.77;100.00
72896;BME280;61036;53.224;6.554;2022-10-13T08:30:59;101649.56;;;11.78;100.00
72896;BME280;61036;53.224;6.554;2022-10-13T08:33:25;101638.69;;;11.79;100.00
72896;BME280;61036;53.224;6.554;2022-10-13T08:35:52;101642.13;;;11.81;100.00
72896;BME280;61036;53.224;6.554;2022-10-13T08:38:18;101641.38;;;11.79;100.00
72896;BME280;61036;53.224;6.554;2022-10-13T08:40:48;101640.16;;;11.71;100.00
72896;BME280;61036;53.224;6.554;2022-10-13T08:43:17;101648.47;;;11.67;100.00
72896;BME280;61036;53.224;6.554;2022-10-13T08:45:44;101649.66;;;11.76;100.00
72896;BME280;61036;53.224;6.554;2022-10-13T08:48:15;101645.88;;;11.79;100.00
72896;BME280;61036;53.224;6.554;2022-10-13T08:50:44;101643.19;;;11.79;100.00
72896;BME280;61036;53.224;6.554;2022-10-13T08:53:26;101645.81;;;11.80;100.00
72896;BME280;61036;53.224;6.554;2022-10-13T08:56:19;101640.25;;;11.69;100.00
72896;BME280;61036;53.224;6.554;2022-10-13T08:58:46;101639.94;;;11.74;100.00
72896;BME280;61036;53.224;6.554;2022-10-13T09:01:17;101648.38;;;11.82;100.00
72896;BME280;61036;53.224;6.554;2022-10-13T09:03:53;101647.06;;;11.89;100.00
72896;BME280;61036;53.224;6.554;2022-10-13T09:06:25;101651.47;;;11.90;100.00
72896;BME280;61036;53.224;6.554;2022-10-13T09:09:07;101647.63;;;12.07;100.00
72896;BME280;61036;53.224;6.554;2022-10-13T09:11:47;101642.94;;;11.96;100.00
72896;BME280;61036;53.224;6.554;2022-10-13T09:14:40;101638.84;;;12.03;100.00
72896;BME280;61036;53.224;6.554;2022-10-13T09:17:21;101639.06;;;12.00;100.00
72896;BME280;61036;53.224;6.554;2022-10-13T09:22:33;101640.59;;;12.04;100.00
72896;BME280;61036;53.224;6.554;2022-10-13T09:27:53;101647.03;;;12.29;100.00
72896;BME280;61036;53.224;6.554;2022-10-13T09:30:38;101643.88;;;12.22;100.00
72896;BME280;61036;53.224;6.554;2022-10-13T09:35:35;101645.81;;;12.33;100.00
72896;BME280;61036;53.224;6.554;2022-10-13T09:38:17;101647.44;;;12.35;100.00
72896;BME280;61036;53.224;6.554;2022-10-13T09:46:09;101649.38;;;12.21;100.00
72896;BME280;61036;53.224;6.554;2022-10-13T09:48:36;101652.22;;;12.32;100.00
72896;BME280;61036;53.224;6.554;2022-10-13T09:51:28;101652.97;;;12.34;100.00
72896;BME280;61036;53.224;6.554;2022-10-13T09:53:55;101649.41;;;12.46;100.00
72896;BME280;61036;53.224;6.554;2022-10-13T10:01:31;101642.03;;;12.48;100.00
72896;BME280;61036;53.224;6.554;2022-10-13T10:04:01;101633.94;;;12.61;100.00
72896;BME280;61036;53.224;6.554;2022-10-13T10:06:29;101633.16;;;12.72;100.00
72896;BME280;61036;53.224;6.554;2022-10-13T10:09:02;101629.69;;;12.82;100.00
72896;BME280;61036;53.224;6.554;2022-10-13T10:11:34;101622.19;;;12.99;100.00
72896;BME280;61036;53.224;6.554;2022-10-13T10:14:17;101632.94;;;13.00;100.00
72896;BME280;61036;53.224;6.554;2022-10-13T10:27:34;101633.75;;;13.14;100.00
72896;BME280;61036;53.224;6.554;2022-10-13T10:30:07;101638.22;;;13.15;100.00
72896;BME280;61036;53.224;6.554;2022-10-13T10:45:29;101640.94;;;12.89;100.00
72896;BME280;61036;53.224;6.554;2022-10-13T10:47:59;101630.88;;;12.91;100.00
72896;BME280;61036;53.224;6.554;2022-10-13T10:50:27;101635.84;;;12.97;100.00
72896;BME280;61036;53.224;6.554;2022-10-13T10:55:48;101633.69;;;12.90;100.00
72896;BME280;61036;53.224;6.554;2022-10-13T11:01:06;101642.16;;;12.85;100.00
72896;BME280;61036;53.224;6.554;2022-10-13T11:08:43;101631.28;;;13.11;100.00
72896;BME280;61036;53.224;6.554;2022-10-13T11:16:38;101616.09;;;13.08;100.00
72896;BME280;61036;53.224;6.554;2022-10-13T11:19:40;101611.97;;;13.28;100.00
72896;BME280;61036;53.224;6.554;2022-10-13T11:49:03;101597.13;;;13.58;100.00
72896;BME280;61036;53.224;6.554;2022-10-13T11:57:28;101600.06;;;13.55;100.00
72896;BME280;61036;53.224;6.554;2022-10-13T11:59:57;101591.16;;;13.53;100.00
72896;BME280;61036;53.224;6.554;2022-10-13T12:02:27;101600.16;;;13.53;100.00
72896;BME280;61036;53.224;6.554;2022-10-13T12:07:48;101586.19;;;13.70;100.00
72896;BME280;61036;53.224;6.554;2022-10-13T12:10:35;101582.03;;;13.78;100.00
72896;BME280;61036;53.224;6.554;2022-10-13T12:13:04;101587.78;;;13.97;100.00
72896;BME280;61036;53.224;6.554;2022-10-13T12:15:38;101582.13;;;14.00;100.00
72896;BME280;61036;53.224;6.554;2022-10-13T12:18:19;101578.78;;;14.08;100.00
72896;BME280;61036;53.224;6.554;2022-10-13T12:20:57;101586.69;;;14.11;100.00
72896;BME280;61036;53.224;6.554;2022-10-13T12:23:24;101585.06;;;13.97;100.00
72896;BME280;61036;53.224;6.554;2022-10-13T12:25:51;101589.16;;;14.03;100.00
72896;BME280;61036;53.224;6.554;2022-10-13T12:28:23;101586.44;;;14.03;100.00
72896;BME280;61036;53.224;6.554;2022-10-13T12:30:55;101576.66;;;13.89;100.00
72896;BME280;61036;53.224;6.554;2022-10-13T12:35:53;101575.94;;;13.98;100.00
72896;BME280;61036;53.224;6.554;2022-10-13T12:38:20;101576.44;;;14.03;100.00
72896;BME280;61036;53.224;6.554;2022-10-13T12:40:50;101577.94;;;14.07;100.00
72896;BME280;61036;53.224;6.554;2022-10-13T12:43:22;101572.50;;;14.07;100.00
72896;BME280;61036;53.224;6.554;2022-10-13T12:45:50;101566.22;;;14.07;100.00
72896;BME280;61036;53.224;6.554;2022-10-13T12:48:30;101566.97;;;14.09;100.00
72896;BME280;61036;53.224;6.554;2022-10-13T12:51:16;101565.97;;;14.10;100.00
72896;BME280;61036;53.224;6.554;2022-10-13T12:53:43;101564.59;;;14.04;100.00
72896;BME280;61036;53.224;6.554;2022-10-13T12:56:25;101569.31;;;14.02;100.00
72896;BME280;61036;53.224;6.554;2022-10-13T12:58:52;101572.91;;;14.14;100.00
72896;BME280;61036;53.224;6.554;2022-10-13T13:01:27;101567.50;;;14.14;100.00
72896;BME280;61036;53.224;6.554;2022-10-13T13:03:58;101573.00;;;14.12;100.00
72896;BME280;61036;53.224;6.554;2022-10-13T13:06:33;101574.25;;;14.08;100.00
72896;BME280;61036;53.224;6.554;2022-10-13T13:11:44;101569.78;;;13.96;100.00
72896;BME280;61036;53.224;6.554;2022-10-13T13:19:44;101574.47;;;13.94;100.00
72896;BME280;61036;53.224;6.554;2022-10-13T13:22:11;101564.38;;;13.96;100.00
72896;BME280;61036;53.224;6.554;2022-10-13T13:24:36;101572.88;;;14.03;100.00
72896;BME280;61036;53.224;6.554;2022-10-13T13:27:22;101568.56;;;14.00;100.00
72896;BME280;61036;53.224;6.554;2022-10-13T13:29:48;101566.44;;;13.92;100.00
72896;BME280;61036;53.224;6.554;2022-10-13T13:32:18;101563.94;;;13.89;100.00
72896;BME280;61036;53.224;6.554;2022-10-13T13:34:44;101561.63;;;13.85;100.00
72896;BME280;61036;53.224;6.554;2022-10-13T13:37:23;101564.47;;;13.94;100.00
72896;BME280;61036;53.224;6.554;2022-10-13T13:39:49;101563.88;;;14.02;100.00
72896;BME280;61036;53.224;6.554;2022-10-13T13:42:15;101563.16;;;14.11;100.00
72896;BME280;61036;53.224;6.554;2022-10-13T13:44:44;101556.13;;;14.09;100.00
72896;BME280;61036;53.224;6.554;2022-10-13T13:47:14;101557.22;;;14.06;100.00
72896;BME280;61036;53.224;6.554;2022-10-13T13:49:44;101559.34;;;14.14;100.00
72896;BME280;61036;53.224;6.554;2022-10-13T13:52:10;101553.19;;;14.23;100.00
72896;BME280;61036;53.224;6.554;2022-10-13T13:54:37;101542.44;;;14.22;100.00
72896;BME280;61036;53.224;6.554;2022-10-13T13:57:03;101540.25;;;14.27;100.00
72896;BME280;61036;53.224;6.554;2022-10-13T13:59:29;101548.03;;;14.20;100.00
72896;BME280;61036;53.224;6.554;2022-10-13T14:01:55;101551.34;;;14.24;100.00
72896;BME280;61036;53.224;6.554;2022-10-13T14:04:24;101550.72;;;14.20;100.00
72896;BME280;61036;53.224;6.554;2022-10-13T14:06:53;101542.31;;;14.12;100.00
72896;BME280;61036;53.224;6.554;2022-10-13T14:09:19;101554.38;;;14.08;100.00
72896;BME280;61036;53.224;6.554;2022-10-13T14:11:45;101545.75;;;14.03;100.00
72896;BME280;61036;53.224;6.554;2022-10-13T14:14:12;101550.06;;;13.94;100.00
72896;BME280;61036;53.224;6.554;2022-10-13T14:16:37;101548.72;;;14.00;100.00
72896;BME280;61036;53.224;6.554;2022-10-13T14:19:06;101551.28;;;14.01;100.00
72896;BME280;61036;53.224;6.554;2022-10-13T14:21:32;101543.19;;;14.12;100.00
72896;BME280;61036;53.224;6.554;2022-10-13T14:24:00;101539.47;;;14.02;100.00
72896;BME280;61036;53.224;6.554;2022-10-13T14:26:28;101540.44;;;14.01;100.00
72896;BME280;61036;53.224;6.554;2022-10-13T14:28:53;101540.19;;;13.93;100.00
72896;BME280;61036;53.224;6.554;2022-10-13T14:31:19;101543.28;;;14.00;100.00
72896;BME280;61036;53.224;6.554;2022-10-13T14:33:48;101544.63;;;13.94;100.00
72896;BME280;61036;53.224;6.554;2022-10-13T14:36:14;101540.78;;;13.85;100.00
72896;BME280;61036;53.224;6.554;2022-10-13T14:38:40;101534.25;;;13.88;100.00
72896;BME280;61036;53.224;6.554;2022-10-13T14:41:06;101531.41;;;13.89;100.00
72896;BME280;61036;53.224;6.554;2022-10-13T14:43:32;101522.44;;;14.00;100.00
72896;BME280;61036;53.224;6.554;2022-10-13T14:46:04;101527.38;;;14.06;100.00
72896;BME280;61036;53.224;6.554;2022-10-13T14:48:31;101524.31;;;14.00;100.00
72896;BME280;61036;53.224;6.554;2022-10-13T14:50:57;101531.56;;;13.88;100.00
72896;BME280;61036;53.224;6.554;2022-10-13T14:53:23;101532.66;;;13.85;100.00
72896;BME280;61036;53.224;6.554;2022-10-13T14:55:51;101538.41;;;13.81;100.00
72896;BME280;61036;53.224;6.554;2022-10-13T14:58:17;101533.72;;;13.71;100.00